createdAt,value
2019-04-28T00:01:24.366Z,99.90
2019-04-28T00:03:53.266Z,99.90
2019-04-28T00:06:22.161Z,99.90
2019-04-28T00:08:51.805Z,99.30
2019-04-28T00:11:21.817Z,98.20
2019-04-28T00:13:53.228Z,97.60
2019-04-28T00:16:22.907Z,96.90
2019-04-28T00:18:52.140Z,96.90
2019-04-28T00:21:22.659Z,96.40
2019-04-28T00:24:11.355Z,96.60
2019-04-28T00:26:41.542Z,96.70
2019-04-28T00:29:11.094Z,96.80
2019-04-28T00:31:41.385Z,96.70
2019-04-28T00:34:11.499Z,96.30
2019-04-28T00:36:42.999Z,96.10
2019-04-28T00:39:12.470Z,95.70
2019-04-28T00:41:42.013Z,95.70
2019-04-28T00:44:11.939Z,96.00
2019-04-28T00:46:42.451Z,97.10
2019-04-28T00:49:11.962Z,97.50
2019-04-28T00:51:41.531Z,97.40
2019-04-28T00:54:12.099Z,97.60
2019-04-28T00:56:41.849Z,97.90
2019-04-28T00:59:11.770Z,97.60
2019-04-28T01:01:51.588Z,97.90
2019-04-28T01:04:21.944Z,97.60
2019-04-28T01:06:51.970Z,97.90
2019-04-28T01:09:21.858Z,97.60
2019-04-28T01:11:51.150Z,97.30
2019-04-28T01:14:21.586Z,97.40
2019-04-28T01:16:54.978Z,97.10
2019-04-28T01:19:31.369Z,96.50
2019-04-28T01:22:12.107Z,96.20
2019-04-28T01:24:46.774Z,95.50
2019-04-28T01:27:20.458Z,95.20
2019-04-28T01:29:49.904Z,93.70
2019-04-28T01:32:30.781Z,93.20
2019-04-28T01:34:59.897Z,91.40
2019-04-28T01:37:29.592Z,91.80
2019-04-28T01:39:59.688Z,90.60
2019-04-28T01:42:30.253Z,86.60
2019-04-28T01:45:00.634Z,87.10
2019-04-28T01:47:30.575Z,86.20
2019-04-28T01:50:01.626Z,87.30
2019-04-28T01:52:30.392Z,87.90
2019-04-28T01:55:00.501Z,87.10
2019-04-28T01:57:29.977Z,88.70
2019-04-28T01:59:59.835Z,90.10
2019-04-28T02:02:30.023Z,89.60
2019-04-28T02:04:59.958Z,90.10
2019-04-28T02:07:30.708Z,90.70
2019-04-28T02:10:00.763Z,90.50
2019-04-28T02:12:30.433Z,90.60
2019-04-28T02:15:00.894Z,91.20
2019-04-28T02:17:30.552Z,90.20
2019-04-28T02:20:00.731Z,89.60
2019-04-28T02:22:32.221Z,89.20
2019-04-28T02:25:01.149Z,89.40
2019-04-28T02:27:30.268Z,90.40
2019-04-28T02:30:00.093Z,90.00
2019-04-28T02:32:30.961Z,90.20
2019-04-28T02:35:01.195Z,90.10
2019-04-28T02:37:30.833Z,90.40
2019-04-28T02:40:00.694Z,89.60
2019-04-28T02:42:31.062Z,89.90
2019-04-28T02:45:01.029Z,87.80
2019-04-28T02:47:33.669Z,88.30
2019-04-28T02:50:02.070Z,88.80
2019-04-28T02:52:51.565Z,87.30
2019-04-28T02:55:21.291Z,88.40
2019-04-28T02:57:51.843Z,88.90
2019-04-28T03:00:21.990Z,88.80
2019-04-28T03:02:51.514Z,90.30
2019-04-28T03:05:21.632Z,90.60
2019-04-28T03:07:51.750Z,91.20
2019-04-28T03:10:21.663Z,91.20
2019-04-28T03:12:51.941Z,91.80
2019-04-28T03:15:21.169Z,92.10
2019-04-28T03:17:52.959Z,92.50
2019-04-28T03:20:21.183Z,92.70
2019-04-28T03:22:51.404Z,92.90
2019-04-28T03:25:33.569Z,93.30
2019-04-28T03:28:21.355Z,93.50
2019-04-28T03:31:06.340Z,93.60
2019-04-28T03:33:34.015Z,94.40
2019-04-28T03:36:03.678Z,94.50
2019-04-28T03:38:32.523Z,94.80
2019-04-28T03:41:01.487Z,94.90
2019-04-28T03:43:30.583Z,95.20
2019-04-28T03:46:07.405Z,95.10
2019-04-28T03:48:36.383Z,95.80
2019-04-28T03:51:05.307Z,95.60
2019-04-28T03:53:34.250Z,95.50
2019-04-28T03:56:03.095Z,95.50
2019-04-28T03:58:31.987Z,95.40
2019-04-28T04:01:03.252Z,95.70
2019-04-28T04:03:31.469Z,95.80
2019-04-28T04:06:00.934Z,95.80
2019-04-28T04:08:30.913Z,96.00
2019-04-28T04:11:04.768Z,95.70
2019-04-28T04:13:35.231Z,96.10
2019-04-28T04:16:20.925Z,96.10
2019-04-28T04:18:53.688Z,95.60
2019-04-28T04:21:22.037Z,95.50
2019-04-28T04:23:51.105Z,95.60
2019-04-28T04:26:21.233Z,95.60
2019-04-28T04:28:51.615Z,95.50
2019-04-28T04:31:21.027Z,95.40
2019-04-28T04:33:50.662Z,95.50
2019-04-28T04:36:21.077Z,95.40
2019-04-28T04:38:51.259Z,95.60
2019-04-28T04:41:21.444Z,95.80
2019-04-28T04:43:51.245Z,95.90
2019-04-28T04:46:22.672Z,96.10
2019-04-28T04:48:51.883Z,96.20
2019-04-28T04:51:21.557Z,96.60
2019-04-28T04:53:51.214Z,96.60
2019-04-28T04:56:21.352Z,96.50
2019-04-28T04:58:50.823Z,96.60
2019-04-28T05:01:37.712Z,97.10
2019-04-28T05:04:11.158Z,96.40
2019-04-28T05:06:41.755Z,96.70
2019-04-28T05:09:11.231Z,96.30
2019-04-28T05:11:40.448Z,96.40
2019-04-28T05:14:11.944Z,96.50
2019-04-28T05:16:40.341Z,96.90
2019-04-28T05:19:10.363Z,96.10
2019-04-28T05:21:40.099Z,95.90
2019-04-28T05:24:23.121Z,95.90
2019-04-28T05:26:52.067Z,96.20
2019-04-28T05:29:26.508Z,96.00
2019-04-28T05:31:54.811Z,96.00
2019-04-28T05:34:24.160Z,95.80
2019-04-28T05:36:52.758Z,95.90
2019-04-28T05:39:21.562Z,95.50
2019-04-28T05:41:50.631Z,95.00
2019-04-28T05:44:20.180Z,95.00
2019-04-28T05:46:50.565Z,94.80
2019-04-28T05:49:39.859Z,94.50
2019-04-28T05:52:26.939Z,94.20
2019-04-28T05:55:10.157Z,93.90
2019-04-28T05:57:40.901Z,93.90
2019-04-28T06:00:14.290Z,93.80
2019-04-28T06:02:55.936Z,93.40
2019-04-28T06:05:15.294Z,93.40
2019-04-28T06:07:45.831Z,93.60
2019-04-28T06:10:16.088Z,93.10
2019-04-28T06:12:44.966Z,92.80
2019-04-28T06:15:13.830Z,92.40
2019-04-28T06:17:42.778Z,92.60
2019-04-28T06:20:12.458Z,91.90
2019-04-28T06:22:41.446Z,92.40
2019-04-28T06:25:10.486Z,92.30
2019-04-28T06:27:39.361Z,91.90
2019-04-28T06:30:08.376Z,91.20
2019-04-28T06:32:37.335Z,91.10
2019-04-28T06:35:07.671Z,91.50
2019-04-28T06:37:36.537Z,91.50
2019-04-28T06:40:08.386Z,91.50
2019-04-28T06:42:37.246Z,91.20
2019-04-28T06:45:07.773Z,91.30
2019-04-28T06:47:36.758Z,90.70
2019-04-28T06:50:06.562Z,90.40
2019-04-28T06:52:35.371Z,89.80
2019-04-28T06:55:05.671Z,89.20
2019-04-28T06:57:34.556Z,87.80
2019-04-28T07:00:05.463Z,87.70
2019-04-28T07:02:34.396Z,86.60
2019-04-28T07:05:03.958Z,85.70
2019-04-28T07:07:32.975Z,85.00
2019-04-28T07:10:01.828Z,83.20
2019-04-28T07:12:30.762Z,79.70
2019-04-28T07:14:59.661Z,79.50
2019-04-28T07:17:28.558Z,78.70
2019-04-28T07:20:01.758Z,76.60
2019-04-28T07:22:32.179Z,77.40
2019-04-28T07:25:01.061Z,74.90
2019-04-28T07:27:29.981Z,73.40
2019-04-28T07:29:58.877Z,72.00
2019-04-28T07:32:27.809Z,72.40
2019-04-28T07:34:56.681Z,69.00
2019-04-28T07:37:25.600Z,68.70
2019-04-28T07:39:56.691Z,68.50
2019-04-28T07:42:25.061Z,67.50
2019-04-28T07:44:53.961Z,65.60
2019-04-28T07:47:22.884Z,63.70
2019-04-28T07:49:51.819Z,61.90
2019-04-28T07:52:22.290Z,62.20
2019-04-28T07:54:51.255Z,59.00
2019-04-28T07:57:20.140Z,58.90
2019-04-28T07:59:49.106Z,58.60
2019-04-28T08:02:17.960Z,58.60
2019-04-28T08:04:46.911Z,58.50
2019-04-28T08:07:15.786Z,57.80
2019-04-28T08:09:44.761Z,57.70
2019-04-28T08:12:13.618Z,57.20
2019-04-28T08:14:42.581Z,55.50
2019-04-28T08:17:11.451Z,58.00
2019-04-28T08:19:40.339Z,57.40
2019-04-28T08:22:09.193Z,57.20
2019-04-28T08:24:38.189Z,57.60
2019-04-28T08:27:07.048Z,56.70
2019-04-28T08:29:35.986Z,56.50
2019-04-28T08:32:22.916Z,57.40
2019-04-28T08:34:51.884Z,54.50
2019-04-28T08:37:20.858Z,53.30
2019-04-28T08:39:49.779Z,49.40
2019-04-28T08:42:18.688Z,49.80
2019-04-28T08:44:47.601Z,50.00
2019-04-28T08:47:16.569Z,48.30
2019-04-28T08:49:45.482Z,47.90
2019-04-28T08:52:14.415Z,46.70
2019-04-28T08:54:43.334Z,46.00
2019-04-28T08:57:12.162Z,45.50
2019-04-28T08:59:41.146Z,47.40
2019-04-28T09:02:10.026Z,47.70
2019-04-28T09:04:38.938Z,48.30
2019-04-28T09:07:07.880Z,48.70
2019-04-28T09:09:36.780Z,48.70
2019-04-28T09:12:05.774Z,48.60
2019-04-28T09:14:34.686Z,48.80
2019-04-28T09:17:03.571Z,47.40
2019-04-28T09:19:32.499Z,47.40
2019-04-28T09:22:01.442Z,47.50
2019-04-28T09:24:30.391Z,45.80
2019-04-28T09:26:59.234Z,48.50
2019-04-28T09:29:28.152Z,46.70
2019-04-28T09:31:57.035Z,46.50
2019-04-28T09:34:28.358Z,44.70
2019-04-28T09:36:56.568Z,45.50
2019-04-28T09:39:45.140Z,44.30
2019-04-28T09:42:33.147Z,44.00
2019-04-28T09:45:03.741Z,42.10
2019-04-28T09:47:32.601Z,41.20
2019-04-28T09:50:01.461Z,43.50
2019-04-28T09:52:30.473Z,42.40
2019-04-28T09:55:01.100Z,42.20
2019-04-28T09:57:30.102Z,43.30
2019-04-28T09:59:59.027Z,40.70
2019-04-28T10:02:28.032Z,40.70
2019-04-28T10:04:56.936Z,41.30
2019-04-28T10:07:25.857Z,41.50
2019-04-28T10:09:54.779Z,41.90
2019-04-28T10:12:27.160Z,41.00
2019-04-28T10:14:54.258Z,42.10
2019-04-28T10:17:23.204Z,41.30
2019-04-28T10:19:52.150Z,40.20
2019-04-28T10:22:21.062Z,42.30
2019-04-28T10:24:49.949Z,40.40
2019-04-28T10:27:19.024Z,40.50
2019-04-28T10:29:47.956Z,39.80
2019-04-28T10:32:16.832Z,39.40
2019-04-28T10:34:54.815Z,39.00
2019-04-28T10:37:16.302Z,38.50
2019-04-28T10:39:46.770Z,38.90
2019-04-28T10:42:15.631Z,39.00
2019-04-28T10:44:46.086Z,37.90
2019-04-28T10:47:16.055Z,38.80
2019-04-28T10:49:44.961Z,38.70
2019-04-28T10:52:13.842Z,39.40
2019-04-28T10:54:42.781Z,38.30
2019-04-28T10:57:11.600Z,37.30
2019-04-28T10:59:40.527Z,36.20
2019-04-28T11:02:09.385Z,36.10
2019-04-28T11:04:39.866Z,38.20
2019-04-28T11:07:16.886Z,38.50
2019-04-28T11:09:50.375Z,36.80
2019-04-28T11:12:26.864Z,34.70
2019-04-28T11:14:55.887Z,36.10
2019-04-28T11:17:25.961Z,34.50
2019-04-28T11:19:54.839Z,34.70
2019-04-28T11:22:23.848Z,33.40
2019-04-28T11:24:52.722Z,35.00
2019-04-28T11:27:21.976Z,34.60
2019-04-28T11:29:50.939Z,35.30
2019-04-28T11:32:19.890Z,34.50
2019-04-28T11:34:50.386Z,33.30
2019-04-28T11:37:19.376Z,34.80
2019-04-28T11:39:48.544Z,34.40
2019-04-28T11:42:17.503Z,33.80
2019-04-28T11:44:46.367Z,32.70
2019-04-28T11:47:16.851Z,34.20
2019-04-28T11:49:45.717Z,33.00
2019-04-28T11:52:14.911Z,34.70
2019-04-28T11:54:43.890Z,33.30
2019-04-28T11:57:12.707Z,33.20
2019-04-28T11:59:41.668Z,33.80
2019-04-28T12:02:10.606Z,32.50
2019-04-28T12:04:39.590Z,31.70
2019-04-28T12:07:08.574Z,32.20
2019-04-28T12:09:44.946Z,33.10
2019-04-28T12:12:24.447Z,33.60
2019-04-28T12:14:58.365Z,31.40
2019-04-28T12:17:31.679Z,33.00
2019-04-28T12:20:02.139Z,32.90
2019-04-28T12:22:31.070Z,32.70
2019-04-28T12:24:59.956Z,32.70
2019-04-28T12:27:28.807Z,32.00
2019-04-28T12:29:57.699Z,31.70
2019-04-28T12:32:26.673Z,31.60
2019-04-28T12:34:55.592Z,32.60
2019-04-28T12:37:24.497Z,32.90
2019-04-28T12:39:53.438Z,31.20
2019-04-28T12:42:22.385Z,31.60
2019-04-28T12:44:51.371Z,31.40
2019-04-28T12:47:20.213Z,31.60
2019-04-28T12:49:53.795Z,32.30
2019-04-28T12:52:22.677Z,33.10
2019-04-28T12:54:51.550Z,32.00
2019-04-28T12:57:20.541Z,33.40
2019-04-28T12:59:53.147Z,32.40
2019-04-28T13:02:31.872Z,31.30
2019-04-28T13:05:17.695Z,31.10
2019-04-28T13:07:46.598Z,31.30
2019-04-28T13:10:15.488Z,30.40
2019-04-28T13:12:44.471Z,29.90
2019-04-28T13:15:13.456Z,29.10
2019-04-28T13:17:42.373Z,28.70
2019-04-28T13:20:11.384Z,27.80
2019-04-28T13:22:40.341Z,27.90
2019-04-28T13:25:09.460Z,27.60
2019-04-28T13:27:38.426Z,26.90
2019-04-28T13:30:08.204Z,26.20
2019-04-28T13:32:37.187Z,26.10
2019-04-28T13:35:06.599Z,25.70
2019-04-28T13:37:35.542Z,25.50
2019-04-28T13:40:07.550Z,26.50
2019-04-28T13:42:36.413Z,25.50
2019-04-28T13:45:09.841Z,25.00
2019-04-28T13:47:47.748Z,24.60
2019-04-28T13:50:19.107Z,24.50
2019-04-28T13:52:47.952Z,24.60
2019-04-28T13:55:18.649Z,24.20
2019-04-28T13:57:47.604Z,23.60
2019-04-28T14:00:18.172Z,23.70
2019-04-28T14:02:51.741Z,23.30
2019-04-28T14:05:40.157Z,23.30
2019-04-28T14:08:09.119Z,24.90
2019-04-28T14:10:38.014Z,24.40
2019-04-28T14:13:07.054Z,23.70
2019-04-28T14:15:35.944Z,24.10
2019-04-28T14:18:04.901Z,22.70
2019-04-28T14:20:33.795Z,23.40
2019-04-28T14:23:02.860Z,23.10
2019-04-28T14:25:31.800Z,23.50
2019-04-28T14:28:00.750Z,23.50
2019-04-28T14:30:29.776Z,23.50
2019-04-28T14:32:58.756Z,22.90
2019-04-28T14:35:27.734Z,22.80
2019-04-28T14:37:56.566Z,22.70
2019-04-28T14:40:25.528Z,22.80
2019-04-28T14:42:54.553Z,21.80
2019-04-28T14:45:23.469Z,22.10
2019-04-28T14:47:52.446Z,21.90
2019-04-28T14:50:21.360Z,21.60
2019-04-28T14:52:50.316Z,22.10
2019-04-28T14:55:19.189Z,22.50
2019-04-28T14:57:48.189Z,23.00
2019-04-28T15:00:25.015Z,22.90
2019-04-28T15:03:01.306Z,22.40
2019-04-28T15:05:44.011Z,21.60
2019-04-28T15:08:17.422Z,21.50
2019-04-28T15:10:56.968Z,21.30
2019-04-28T15:13:26.803Z,22.00
2019-04-28T15:15:55.737Z,21.40
2019-04-28T15:18:24.600Z,21.10
2019-04-28T15:20:53.616Z,21.20
2019-04-28T15:23:22.564Z,21.70
2019-04-28T15:25:51.541Z,21.20
2019-04-28T15:28:20.394Z,21.40
2019-04-28T15:30:49.339Z,21.10
2019-04-28T15:33:18.283Z,20.70
2019-04-28T15:35:47.236Z,20.60
2019-04-28T15:38:16.124Z,21.30
2019-04-28T15:40:44.982Z,21.10
2019-04-28T15:43:13.927Z,21.70
2019-04-28T15:45:43.043Z,21.60
2019-04-28T15:48:11.963Z,21.70
2019-04-28T15:50:40.826Z,22.10
2019-04-28T15:53:09.782Z,21.70
2019-04-28T15:55:40.237Z,22.30
2019-04-28T15:58:27.027Z,23.60
2019-04-28T16:00:55.924Z,25.10
2019-04-28T16:03:24.836Z,27.20
2019-04-28T16:05:53.743Z,28.60
2019-04-28T16:08:23.904Z,30.00
2019-04-28T16:10:52.894Z,31.40
2019-04-28T16:13:21.810Z,32.00
2019-04-28T16:15:50.710Z,32.60
2019-04-28T16:18:19.687Z,32.70
2019-04-28T16:20:48.545Z,32.90
2019-04-28T16:23:17.427Z,33.30
2019-04-28T16:25:46.333Z,33.70
2019-04-28T16:28:15.243Z,34.40
2019-04-28T16:30:44.178Z,34.40
2019-04-28T16:33:13.257Z,34.60
2019-04-28T16:35:42.196Z,35.30
2019-04-28T16:38:11.088Z,35.30
2019-04-28T16:40:40.096Z,35.40
2019-04-28T16:43:09.069Z,36.20
2019-04-28T16:45:38.460Z,36.20
2019-04-28T16:48:07.295Z,36.60
2019-04-28T16:50:36.209Z,36.90
2019-04-28T16:53:05.188Z,37.20
2019-04-28T16:55:41.583Z,36.90
2019-04-28T16:58:26.884Z,37.20
2019-04-28T17:00:57.350Z,37.20
2019-04-28T17:03:27.952Z,37.70
2019-04-28T17:05:56.846Z,37.50
2019-04-28T17:08:25.743Z,37.80
2019-04-28T17:10:54.668Z,38.20
2019-04-28T17:13:23.601Z,38.50
2019-04-28T17:15:52.535Z,38.50
2019-04-28T17:18:21.464Z,39.60
2019-04-28T17:20:50.355Z,39.20
2019-04-28T17:23:19.246Z,39.60
2019-04-28T17:25:48.201Z,39.70
2019-04-28T17:28:17.347Z,39.40
2019-04-28T17:30:46.221Z,39.40
2019-04-28T17:33:15.101Z,40.10
2019-04-28T17:35:44.180Z,39.80
2019-04-28T17:38:13.141Z,40.20
2019-04-28T17:40:42.336Z,40.20
2019-04-28T17:43:11.225Z,40.50
2019-04-28T17:45:40.039Z,40.90
2019-04-28T17:48:13.399Z,40.90
2019-04-28T17:50:45.233Z,41.30
2019-04-28T17:53:13.033Z,42.10
2019-04-28T17:55:41.911Z,42.40
2019-04-28T17:58:10.879Z,42.30
2019-04-28T18:00:44.191Z,43.20
2019-04-28T18:03:29.412Z,43.10
2019-04-28T18:05:59.875Z,42.90
2019-04-28T18:08:28.867Z,43.20
2019-04-28T18:10:57.828Z,43.90
2019-04-28T18:13:26.827Z,43.60
2019-04-28T18:15:57.342Z,43.50
2019-04-28T18:18:39.749Z,43.20
2019-04-28T18:21:08.666Z,44.00
2019-04-28T18:23:37.541Z,44.80
2019-04-28T18:26:06.561Z,44.50
2019-04-28T18:28:35.429Z,44.50
2019-04-28T18:31:14.925Z,45.30
2019-04-28T18:34:01.802Z,45.40
2019-04-28T18:36:32.322Z,45.50
2019-04-28T18:39:02.758Z,46.00
2019-04-28T18:41:45.181Z,46.80
2019-04-28T18:44:21.158Z,46.80
2019-04-28T18:46:50.101Z,47.20
2019-04-28T18:49:18.953Z,47.30
2019-04-28T18:51:47.890Z,47.70
2019-04-28T18:54:17.201Z,48.30
2019-04-28T18:56:46.287Z,48.60
2019-04-28T18:59:15.141Z,49.30
2019-04-28T19:01:54.636Z,49.30
2019-04-28T19:04:23.498Z,50.30
2019-04-28T19:07:04.485Z,49.70
2019-04-28T19:09:27.776Z,50.00
2019-04-28T19:12:16.579Z,50.30
2019-04-28T19:15:05.047Z,50.70
2019-04-28T19:17:44.508Z,51.10
2019-04-28T19:20:13.845Z,51.30
2019-04-28T19:22:46.916Z,51.60
2019-04-28T19:25:16.090Z,52.50
2019-04-28T19:27:44.979Z,53.60
2019-04-28T19:30:14.394Z,53.90
2019-04-28T19:32:43.331Z,54.10
2019-04-28T19:35:12.564Z,55.10
2019-04-28T19:37:41.532Z,55.70
2019-04-28T19:40:10.692Z,56.50
2019-04-28T19:42:39.738Z,57.00
2019-04-28T19:45:12.114Z,58.20
2019-04-28T19:47:41.144Z,59.50
2019-04-28T19:50:10.306Z,61.20
2019-04-28T19:52:42.572Z,64.70
2019-04-28T19:55:11.575Z,67.40
2019-04-28T19:57:44.855Z,69.10
2019-04-28T20:00:16.591Z,71.40
2019-04-28T20:02:45.468Z,73.30
2019-04-28T20:05:14.391Z,74.00
2019-04-28T20:07:43.241Z,76.70
2019-04-28T20:10:13.206Z,77.80
2019-04-28T20:12:42.127Z,78.80
2019-04-28T20:15:11.209Z,78.40
2019-04-28T20:17:40.180Z,78.70
2019-04-28T20:20:09.238Z,79.10
2019-04-28T20:22:38.157Z,79.50
2019-04-28T20:25:07.236Z,79.70
2019-04-28T20:27:36.118Z,80.00
2019-04-28T20:30:07.060Z,79.90
2019-04-28T20:32:46.558Z,80.40
2019-04-28T20:35:17.187Z,80.90
2019-04-28T20:37:50.123Z,79.60
2019-04-28T20:40:20.682Z,81.00
2019-04-28T20:42:51.167Z,80.20
2019-04-28T20:45:20.087Z,80.30
2019-04-28T20:47:48.927Z,80.70
2019-04-28T20:50:17.945Z,81.40
2019-04-28T20:52:46.827Z,81.00
2019-04-28T20:55:15.759Z,82.00
2019-04-28T20:57:44.691Z,81.20
2019-04-28T21:00:13.740Z,81.80
2019-04-28T21:02:42.712Z,82.50
2019-04-28T21:05:11.559Z,81.70
2019-04-28T21:07:40.495Z,81.90
2019-04-28T21:10:09.505Z,80.60
2019-04-28T21:12:38.456Z,81.00
2019-04-28T21:15:07.407Z,81.00
2019-04-28T21:17:36.318Z,81.10
2019-04-28T21:20:08.183Z,81.90
2019-04-28T21:22:37.167Z,82.40
2019-04-28T21:25:06.938Z,82.40
2019-04-28T21:27:35.866Z,82.80
2019-04-28T21:30:05.124Z,83.50
2019-04-28T21:32:34.038Z,84.10
2019-04-28T21:35:02.953Z,81.30
2019-04-28T21:37:31.847Z,79.90
2019-04-28T21:40:00.786Z,80.00
2019-04-28T21:42:47.283Z,80.40
2019-04-28T23:44:18.073Z,70.70
2019-04-28T23:46:59.598Z,70.30
2019-04-28T23:49:29.892Z,70.30
2019-04-28T23:52:16.789Z,70.90
2019-04-28T23:54:47.322Z,71.20
2019-04-28T23:57:16.190Z,70.70
2019-04-28T23:59:45.177Z,70.50
